Time;durP1;ratioP1;P1;durP2;ratioP2;P2;SDS_P1;SDS_P2;PMS_P1;PMS_P2;Temp;Humidity;BMP_temperature;BMP_pressure;BME280_temperature;BME280_humidity;BME280_pressure;Samples;Min_cycle;Max_cycle;Signal;HPM_P1;HPM_P2
2023/06/08 00:02:18;;;;;;;13.53;11.70;;;18.20;99.90;;;;;;5029297;28;20182;-71
2023/06/08 00:04:45;;;;;;;12.67;11.37;;;18.10;99.90;;;;;;5029227;28;20516;-71
2023/06/08 00:07:14;;;;;;;13.90;12.13;;;18.10;99.90;;;;;;5029586;28;20610;-70
2023/06/08 00:09:44;;;;;;;18.17;12.23;;;18.10;99.90;;;;;;5029545;28;20433;-71
2023/06/08 00:12:13;;;;;;;14.77;11.57;;;18.00;99.90;;;;;;5028891;28;20425;-71
2023/06/08 00:14:39;;;;;;;12.57;11.37;;;18.00;99.90;;;;;;5029101;28;20425;-71
2023/06/08 00:17:05;;;;;;;13.93;11.87;;;18.00;99.90;;;;;;5029451;28;20515;-71
2023/06/08 00:19:33;;;;;;;13.23;11.97;;;17.90;99.90;;;;;;5029455;28;20421;-71
2023/06/08 00:22:04;;;;;;;13.63;12.20;;;17.90;99.90;;;;;;5021876;28;20930;-71
2023/06/08 00:24:34;;;;;;;15.73;11.80;;;17.90;99.90;;;;;;5028979;28;20405;-71
2023/06/08 00:27:00;;;;;;;12.20;10.37;;;17.80;99.90;;;;;;5029458;28;20499;-71
2023/06/08 00:29:26;;;;;;;13.47;11.90;;;17.90;99.90;;;;;;5032535;28;20429;-71
2023/06/08 00:31:52;;;;;;;12.90;10.37;;;17.80;99.90;;;;;;5028701;28;20417;-71
2023/06/08 00:34:18;;;;;;;11.67;10.73;;;17.80;99.90;;;;;;5028944;28;20419;-71
2023/06/08 00:36:45;;;;;;;12.63;11.33;;;17.80;99.90;;;;;;5028849;28;20447;-71
2023/06/08 00:39:11;;;;;;;12.53;10.63;;;17.80;99.90;;;;;;5021320;28;20470;-71
2023/06/08 00:41:37;;;;;;;13.00;11.70;;;17.80;99.90;;;;;;5028515;28;20405;-71
2023/06/08 00:44:05;;;;;;;15.00;12.17;;;17.80;99.90;;;;;;5028597;28;20520;-71
2023/06/08 00:46:32;;;;;;;11.50;10.50;;;17.80;99.90;;;;;;5028902;28;20265;-71
2023/06/08 00:48:58;;;;;;;12.17;10.97;;;17.70;99.90;;;;;;5029195;28;20856;-71
2023/06/08 00:51:28;;;;;;;12.10;10.90;;;17.70;99.90;;;;;;5028507;28;20500;-71
2023/06/08 00:53:56;;;;;;;12.73;11.40;;;17.60;99.90;;;;;;5028713;28;20413;-71
2023/06/08 00:56:26;;;;;;;14.97;11.93;;;17.60;99.90;;;;;;5027889;28;20838;-71
2023/06/08 00:58:56;;;;;;;12.23;10.20;;;17.50;99.90;;;;;;5029092;28;21005;-70
2023/06/08 01:01:24;;;;;;;12.03;10.93;;;17.50;99.90;;;;;;5028371;28;20411;-71
2023/06/08 01:03:51;;;;;;;13.40;11.47;;;17.50;99.90;;;;;;5028605;28;20409;-71
2023/06/08 01:06:20;;;;;;;13.13;10.93;;;17.40;99.90;;;;;;5028887;28;20453;-71
2023/06/08 01:09:03;;;;;;;12.10;10.70;;;17.40;99.90;;;;;;5028770;28;20536;-71
2023/06/08 01:11:34;;;;;;;11.57;10.47;;;17.50;99.90;;;;;;5026413;28;20417;-71
2023/06/08 01:14:03;;;;;;;12.70;10.60;;;17.50;99.90;;;;;;5028276;28;20409;-71
2023/06/08 01:16:33;;;;;;;13.17;10.57;;;17.40;99.90;;;;;;5028779;28;20853;-71
2023/06/08 01:19:04;;;;;;;12.77;11.43;;;17.30;99.90;;;;;;5028532;28;20456;-70
2023/06/08 01:22:23;;;;;;;12.43;11.10;;;17.30;99.90;;;;;;5028375;28;20448;-70
2023/06/08 01:24:56;;;;;;;15.83;11.33;;;17.30;99.90;;;;;;5006033;28;20426;-71
2023/06/08 01:27:25;;;;;;;15.13;10.87;;;17.20;99.90;;;;;;5030618;28;20448;-71
2023/06/08 01:29:51;;;;;;;12.77;9.93;;;17.20;99.90;;;;;;5048713;28;20901;-71
2023/06/08 01:32:18;;;;;;;14.57;10.67;;;17.20;99.90;;;;;;5029351;28;20424;-71
2023/06/08 01:34:45;;;;;;;11.23;10.03;;;17.20;99.90;;;;;;5028268;28;20416;-71
2023/06/08 01:37:31;;;;;;;11.20;10.20;;;17.10;99.90;;;;;;5027293;28;20735;-71
2023/06/08 01:40:03;;;;;;;10.27;9.23;;;17.10;99.90;;;;;;5028659;28;20493;-71
2023/06/08 01:42:30;;;;;;;14.23;10.10;;;17.10;99.90;;;;;;5027927;28;20416;-71
2023/06/08 01:44:59;;;;;;;11.60;9.60;;;17.10;99.90;;;;;;5028072;28;20432;-70
2023/06/08 01:47:38;;;;;;;13.93;10.40;;;17.10;99.90;;;;;;5028411;28;20799;-71
2023/06/08 01:50:07;;;;;;;13.33;10.03;;;17.00;99.90;;;;;;5028546;28;20409;-71
2023/06/08 01:52:33;;;;;;;11.90;10.00;;;17.00;99.90;;;;;;5027856;28;21032;-71
2023/06/08 01:54:58;;;;;;;11.67;10.53;;;17.00;99.90;;;;;;5028151;28;20424;-71
2023/06/08 01:57:24;;;;;;;13.07;10.00;;;17.00;99.90;;;;;;5028260;28;20567;-71
2023/06/08 01:59:50;;;;;;;14.23;9.37;;;16.90;99.90;;;;;;5027120;28;20268;-71
2023/06/08 02:02:15;;;;;;;15.07;10.17;;;16.90;99.90;;;;;;5027572;28;20500;-71
2023/06/08 02:04:42;;;;;;;13.20;9.43;;;16.80;99.90;;;;;;5027858;28;20281;-70
2023/06/08 02:07:08;;;;;;;15.43;10.90;;;16.80;99.90;;;;;;5028239;28;20262;-71
2023/06/08 02:09:33;;;;;;;11.93;9.13;;;16.70;99.90;;;;;;5028333;28;20886;-71
2023/06/08 02:12:07;;;;;;;13.90;9.67;;;16.70;99.90;;;;;;5027038;28;20487;-70
2023/06/08 02:14:33;;;;;;;12.30;10.50;;;16.70;99.90;;;;;;5027860;28;20555;-71
2023/06/08 02:17:00;;;;;;;15.33;10.20;;;16.60;99.90;;;;;;5028182;28;20456;-71
2023/06/08 02:19:26;;;;;;;17.47;10.13;;;16.60;99.90;;;;;;5028186;28;20789;-71
2023/06/08 02:21:53;;;;;;;12.07;10.03;;;16.50;99.90;;;;;;5027372;28;20495;-71
2023/06/08 02:24:19;;;;;;;11.30;9.77;;;16.60;99.90;;;;;;5030189;28;21038;-70
2023/06/08 02:26:44;;;;;;;13.67;10.83;;;16.50;99.90;;;;;;5031783;28;20500;-71
2023/06/08 02:29:10;;;;;;;15.73;10.50;;;16.40;99.90;;;;;;5049452;28;20524;-71
2023/06/08 02:31:36;;;;;;;13.53;9.07;;;16.40;99.90;;;;;;5038173;28;20174;-70
2023/06/08 02:34:01;;;;;;;10.43;9.03;;;16.40;99.90;;;;;;5031310;28;20778;-71
2023/06/08 02:36:31;;;;;;;11.27;9.60;;;16.30;99.90;;;;;;5030596;28;20604;-71
2023/06/08 02:38:57;;;;;;;13.70;9.27;;;16.30;99.90;;;;;;5031522;28;20218;-71
2023/06/08 02:41:23;;;;;;;12.93;10.37;;;16.30;99.90;;;;;;5031007;28;20413;-71
2023/06/08 02:43:49;;;;;;;12.70;10.13;;;16.30;99.90;;;;;;5031153;28;20402;-71
2023/06/08 02:46:15;;;;;;;15.00;10.20;;;16.30;99.90;;;;;;5031419;28;20538;-71
2023/06/08 02:48:40;;;;;;;13.90;9.20;;;16.20;99.90;;;;;;5031410;28;20588;-71
2023/06/08 02:51:06;;;;;;;10.80;9.27;;;16.20;99.90;;;;;;5031312;28;20174;-71
2023/06/08 02:53:32;;;;;;;14.80;10.70;;;16.20;99.90;;;;;;5030333;28;20179;-71
2023/06/08 02:55:58;;;;;;;12.13;10.13;;;16.10;99.90;;;;;;5031396;28;20562;-71
2023/06/08 02:58:24;;;;;;;12.73;10.30;;;16.10;99.90;;;;;;5031120;28;20213;-71
2023/06/08 03:00:53;;;;;;;12.23;10.07;;;16.10;99.90;;;;;;5031312;28;20175;-70
2023/06/08 03:03:23;;;;;;;12.80;10.27;;;16.10;99.90;;;;;;5030173;28;20419;-70
2023/06/08 03:05:50;;;;;;;11.73;10.30;;;16.10;99.90;;;;;;5030990;28;20916;-71
2023/06/08 03:08:16;;;;;;;14.00;9.77;;;16.00;99.90;;;;;;5031492;28;20498;-70
2023/06/08 03:10:42;;;;;;;11.30;10.10;;;15.90;99.90;;;;;;5031072;28;20898;-70
2023/06/08 03:13:08;;;;;;;13.07;9.67;;;16.00;99.90;;;;;;5028638;28;20441;-71
2023/06/08 03:15:34;;;;;;;13.60;8.80;;;16.00;99.90;;;;;;5030932;28;20610;-70
2023/06/08 03:18:01;;;;;;;13.27;9.63;;;16.00;99.90;;;;;;5030744;28;20686;-70
2023/06/08 03:20:26;;;;;;;13.87;10.50;;;15.90;99.90;;;;;;5030888;28;20167;-70
2023/06/08 03:22:52;;;;;;;13.10;9.40;;;15.80;99.90;;;;;;5030147;28;20731;-71
2023/06/08 03:25:21;;;;;;;15.57;11.30;;;15.90;99.90;;;;;;5030506;28;20257;-71
2023/06/08 03:27:47;;;;;;;13.43;9.80;;;15.90;99.90;;;;;;5036666;28;20205;-70
2023/06/08 03:30:12;;;;;;;13.00;10.13;;;15.80;99.90;;;;;;5049298;28;20417;-70
2023/06/08 03:32:38;;;;;;;16.50;10.83;;;15.80;99.90;;;;;;5030021;28;20237;-70
2023/06/08 03:35:05;;;;;;;14.60;10.90;;;15.60;99.90;;;;;;5029745;28;20182;-70
2023/06/08 03:37:30;;;;;;;11.70;10.20;;;15.60;99.90;;;;;;5030310;28;20210;-70
2023/06/08 03:39:56;;;;;;;12.13;10.53;;;15.60;99.90;;;;;;5030469;28;20497;-70
2023/06/08 03:42:22;;;;;;;10.50;8.90;;;15.60;99.90;;;;;;5029745;28;20175;-70
2023/06/08 03:44:47;;;;;;;12.27;9.90;;;15.60;99.90;;;;;;5030074;28;20244;-71
2023/06/08 03:47:14;;;;;;;20.80;10.13;;;15.60;99.90;;;;;;5028790;28;20634;-70
2023/06/08 03:49:40;;;;;;;16.10;10.73;;;15.60;99.90;;;;;;5030228;28;20167;-70
2023/06/08 03:52:06;;;;;;;13.40;10.33;;;15.60;99.90;;;;;;5029582;28;20413;-70
2023/06/08 03:54:31;;;;;;;15.07;10.30;;;15.50;99.90;;;;;;5030061;28;20174;-70
2023/06/08 03:56:57;;;;;;;13.10;11.20;;;15.50;99.90;;;;;;5030114;28;20448;-70
2023/06/08 03:59:23;;;;;;;15.90;10.73;;;15.50;99.90;;;;;;5029996;28;20555;-70
2023/06/08 04:01:49;;;;;;;12.63;10.73;;;15.50;99.90;;;;;;5028170;28;20191;-70
2023/06/08 04:04:14;;;;;;;12.67;10.30;;;15.50;99.90;;;;;;5029559;28;20216;-70
2023/06/08 04:06:40;;;;;;;13.07;10.40;;;15.40;99.90;;;;;;5029992;28;20478;-70
2023/06/08 04:09:06;;;;;;;11.50;10.20;;;15.40;99.90;;;;;;5029899;28;20271;-71
2023/06/08 04:11:32;;;;;;;15.60;10.90;;;15.40;99.90;;;;;;5029148;28;20413;-70
2023/06/08 04:13:58;;;;;;;12.97;10.07;;;15.40;99.90;;;;;;5027660;28;20415;-70
2023/06/08 04:16:23;;;;;;;11.53;10.30;;;15.40;99.90;;;;;;5029599;28;20183;-70
2023/06/08 04:18:49;;;;;;;14.53;10.80;;;15.40;99.90;;;;;;5029521;28;20297;-70
2023/06/08 04:21:15;;;;;;;12.87;11.00;;;15.40;99.90;;;;;;5029236;28;20214;-70
2023/06/08 04:23:41;;;;;;;13.90;10.43;;;15.40;99.90;;;;;;5029153;28;20182;-70
2023/06/08 04:26:07;;;;;;;14.73;10.27;;;15.40;99.90;;;;;;5028399;28;20467;-70
2023/06/08 04:28:33;;;;;;;14.03;10.73;;;15.40;99.90;;;;;;5041770;28;20197;-70
2023/06/08 04:30:59;;;;;;;15.43;10.27;;;15.30;99.90;;;;;;5041689;28;20241;-70
2023/06/08 04:33:28;;;;;;;13.67;10.40;;;15.40;99.90;;;;;;5027255;28;20469;-70
2023/06/08 04:35:54;;;;;;;12.97;10.60;;;15.40;99.90;;;;;;5027187;28;20804;-70
2023/06/08 04:38:20;;;;;;;15.80;11.13;;;15.40;99.90;;;;;;5029202;28;20461;-71
2023/06/08 04:40:54;;;;;;;12.67;10.03;;;15.50;99.90;;;;;;5029384;28;20405;-70
2023/06/08 04:43:21;;;;;;;14.27;11.40;;;15.50;99.90;;;;;;5028407;28;20175;-70
2023/06/08 04:45:59;;;;;;;16.23;11.77;;;15.50;99.90;;;;;;5029050;28;20425;-70
2023/06/08 04:48:28;;;;;;;11.70;9.67;;;15.40;99.90;;;;;;5028469;28;20437;-70
2023/06/08 04:51:03;;;;;;;12.43;10.17;;;15.40;99.90;;;;;;5029121;28;20417;-70
2023/06/08 04:53:33;;;;;;;13.60;10.57;;;15.50;99.90;;;;;;5028178;28;20419;-70
2023/06/08 04:56:02;;;;;;;13.20;9.13;;;15.50;99.90;;;;;;5029301;28;20421;-70
2023/06/08 04:58:30;;;;;;;11.63;10.40;;;15.50;99.90;;;;;;5029016;28;20460;-70
2023/06/08 05:00:56;;;;;;;12.63;11.07;;;15.60;99.90;;;;;;5029089;28;20496;-70
2023/06/08 05:03:22;;;;;;;14.03;9.53;;;15.60;99.90;;;;;;5027937;28;20917;-71
2023/06/08 05:05:48;;;;;;;13.63;9.90;;;15.60;99.90;;;;;;5028750;28;20435;-70
2023/06/08 05:08:14;;;;;;;18.23;10.30;;;15.50;99.90;;;;;;5028958;28;20437;-70
2023/06/08 05:10:40;;;;;;;13.63;10.67;;;15.50;99.90;;;;;;5029044;28;20266;-70
2023/06/08 05:13:05;;;;;;;13.80;11.00;;;15.60;99.90;;;;;;5028185;28;20962;-70
2023/06/08 05:15:31;;;;;;;14.60;10.43;;;15.60;99.90;;;;;;5028975;28;20182;-70
2023/06/08 05:17:57;;;;;;;17.43;10.00;;;15.60;99.90;;;;;;5029007;28;20213;-70
2023/06/08 05:20:25;;;;;;;10.63;9.10;;;15.70;99.90;;;;;;5029000;28;20171;-70
2023/06/08 05:22:51;;;;;;;13.47;9.70;;;15.70;99.90;;;;;;5028216;28;20409;-71
2023/06/08 05:25:17;;;;;;;14.87;9.93;;;15.70;99.90;;;;;;5028627;28;20393;-70
2023/06/08 05:27:43;;;;;;;12.37;9.70;;;15.70;99.90;;;;;;5034213;28;20789;-70
2023/06/08 05:30:09;;;;;;;13.53;9.93;;;15.80;99.90;;;;;;5047957;28;20558;-70
2023/06/08 05:32:35;;;;;;;13.63;10.47;;;15.80;99.90;;;;;;5028057;28;20417;-70
2023/06/08 05:35:02;;;;;;;17.60;10.97;;;15.90;99.90;;;;;;5028451;28;21098;-70
2023/06/08 05:37:28;;;;;;;13.40;10.33;;;15.90;99.90;;;;;;5028594;28;20491;-70
2023/06/08 05:39:53;;;;;;;14.40;10.27;;;15.90;99.90;;;;;;5027694;28;21029;-71
2023/06/08 05:42:20;;;;;;;14.57;9.70;;;15.90;99.90;;;;;;5027954;28;20201;-70
2023/06/08 05:44:46;;;;;;;13.63;10.33;;;16.00;99.90;;;;;;5028176;28;20175;-70
2023/06/08 05:47:12;;;;;;;15.17;10.60;;;16.00;99.90;;;;;;5028377;28;20449;-70
2023/06/08 05:49:38;;;;;;;14.40;11.20;;;16.00;99.90;;;;;;5028758;28;20413;-71
2023/06/08 05:52:04;;;;;;;14.07;11.27;;;16.10;99.90;;;;;;5028181;28;20198;-70
2023/06/08 05:54:30;;;;;;;17.13;11.47;;;16.20;99.90;;;;;;5028380;28;20413;-70
2023/06/08 05:56:56;;;;;;;13.47;11.00;;;16.40;99.90;;;;;;5028656;28;20439;-70
2023/06/08 05:59:22;;;;;;;17.50;11.33;;;16.60;99.90;;;;;;5031866;28;20181;-70
2023/06/08 06:01:48;;;;;;;17.33;12.07;;;16.90;99.90;;;;;;5032134;28;20884;-70
2023/06/08 06:04:14;;;;;;;14.03;10.87;;;17.10;99.90;;;;;;5032400;28;20178;-70
2023/06/08 06:06:40;;;;;;;17.20;11.00;;;17.30;99.90;;;;;;5031461;28;20412;-70
2023/06/08 06:09:06;;;;;;;13.40;11.00;;;17.50;99.90;;;;;;5032516;28;20432;-71
2023/06/08 06:11:32;;;;;;;13.80;10.47;;;17.80;99.90;;;;;;5031815;28;20188;-71
2023/06/08 06:14:00;;;;;;;13.10;11.43;;;18.10;99.90;;;;;;5030900;28;20520;-70
2023/06/08 06:16:26;;;;;;;14.90;10.70;;;18.30;99.90;;;;;;5032104;28;20179;-70
2023/06/08 06:18:52;;;;;;;17.40;11.27;;;18.50;99.90;;;;;;5032040;28;20518;-70
2023/06/08 06:21:17;;;;;;;12.93;10.63;;;18.60;99.90;;;;;;5031657;28;20182;-70
2023/06/08 06:23:44;;;;;;;20.50;11.33;;;18.70;99.90;;;;;;5031581;28;20179;-70
2023/06/08 06:26:11;;;;;;;14.10;10.33;;;18.80;99.90;;;;;;5030872;28;20651;-70
2023/06/08 06:28:40;;;;;;;14.57;10.47;;;18.90;99.90;;;;;;5027300;28;20447;-70
2023/06/08 06:31:06;;;;;;;14.57;11.77;;;18.80;99.90;;;;;;5043046;28;20421;-70
2023/06/08 06:33:32;;;;;;;15.43;10.50;;;18.90;99.90;;;;;;5031125;28;20417;-70
2023/06/08 06:35:58;;;;;;;12.33;11.13;;;19.00;99.90;;;;;;5031283;28;20417;-70
2023/06/08 06:38:24;;;;;;;15.87;11.80;;;19.10;99.90;;;;;;5031803;28;20468;-70
2023/06/08 06:40:52;;;;;;;15.10;11.23;;;19.30;99.90;;;;;;5031837;28;20216;-71
2023/06/08 06:43:21;;;;;;;18.57;11.90;;;19.40;99.90;;;;;;5030726;28;20413;-70
2023/06/08 06:45:50;;;;;;;17.30;11.00;;;19.50;99.90;;;;;;5031726;28;20591;-71
2023/06/08 06:48:18;;;;;;;16.67;10.70;;;19.60;99.90;;;;;;5031663;28;20868;-70
2023/06/08 06:50:44;;;;;;;13.33;10.73;;;19.70;99.90;;;;;;5031680;28;20770;-70
2023/06/08 06:53:10;;;;;;;14.20;11.10;;;19.80;99.90;;;;;;5029401;28;20504;-71
2023/06/08 06:55:35;;;;;;;14.67;11.87;;;19.70;99.90;;;;;;5031588;28;20504;-70
2023/06/08 06:58:02;;;;;;;14.93;10.70;;;19.70;99.90;;;;;;5031289;28;20285;-70
2023/06/08 07:00:31;;;;;;;13.47;10.47;;;19.80;99.90;;;;;;5030111;28;20178;-70
2023/06/08 07:02:58;;;;;;;13.40;10.23;;;19.90;99.90;;;;;;5030792;28;20409;-71
2023/06/08 07:05:23;;;;;;;14.43;10.87;;;20.10;99.90;;;;;;5031083;28;20775;-70
2023/06/08 07:07:49;;;;;;;12.60;10.47;;;20.20;99.90;;;;;;5031214;28;20444;-70
2023/06/08 07:10:16;;;;;;;13.23;11.83;;;20.20;99.90;;;;;;5030098;28;20656;-70
2023/06/08 07:12:42;;;;;;;15.70;12.60;;;20.00;99.90;;;;;;5030398;28;20507;-70
2023/06/08 07:15:08;;;;;;;18.47;10.93;;;19.70;99.90;;;;;;5030908;28;20182;-71
2023/06/08 07:17:34;;;;;;;11.93;10.37;;;19.50;99.90;;;;;;5029671;28;20218;-71
2023/06/08 07:20:00;;;;;;;14.20;11.47;;;19.40;99.90;;;;;;5030994;28;20417;-70
2023/06/08 07:22:26;;;;;;;15.80;11.43;;;19.20;99.90;;;;;;5030339;28;20253;-69
2023/06/08 07:24:52;;;;;;;14.67;11.93;;;19.00;99.90;;;;;;5030544;28;20512;-69
2023/06/08 07:27:18;;;;;;;13.50;10.77;;;19.10;99.90;;;;;;5033102;28;20627;-70
2023/06/08 07:29:44;;;;;;;13.60;12.20;;;19.10;99.90;;;;;;5050921;28;20459;-70
2023/06/08 07:32:11;;;;;;;16.00;10.90;;;19.20;99.90;;;;;;5032560;28;20194;-70
2023/06/08 07:34:37;;;;;;;15.27;11.50;;;19.30;99.90;;;;;;5030636;28;20187;-70
2023/06/08 07:37:03;;;;;;;19.07;11.80;;;19.30;99.90;;;;;;5029627;28;20428;-70
2023/06/08 07:39:28;;;;;;;13.47;10.80;;;19.40;99.90;;;;;;5030788;28;20285;-69
2023/06/08 07:41:54;;;;;;;16.63;11.60;;;19.30;99.90;;;;;;5030026;28;20174;-69
2023/06/08 07:44:20;;;;;;;17.30;11.83;;;19.40;99.90;;;;;;5029115;28;20166;-70
2023/06/08 07:46:45;;;;;;;14.97;11.40;;;19.20;99.90;;;;;;5030586;28;20265;-69
2023/06/08 07:49:11;;;;;;;14.00;11.70;;;19.20;99.90;;;;;;5030238;28;20655;-70
2023/06/08 07:51:37;;;;;;;12.20;11.00;;;19.30;99.90;;;;;;5029563;28;20218;-70
2023/06/08 07:54:03;;;;;;;13.00;11.63;;;19.30;99.90;;;;;;5030082;28;20187;-69
2023/06/08 07:56:29;;;;;;;19.30;10.70;;;19.30;99.90;;;;;;5030297;28;20264;-70
2023/06/08 07:58:55;;;;;;;14.43;11.00;;;19.40;99.90;;;;;;5030240;28;20594;-69
2023/06/08 08:01:20;;;;;;;15.13;11.30;;;19.40;99.90;;;;;;5029654;28;20186;-69
2023/06/08 08:03:46;;;;;;;16.50;11.50;;;19.40;99.90;;;;;;5029851;28;20188;-69
2023/06/08 08:06:12;;;;;;;15.80;11.10;;;19.50;99.90;;;;;;5029939;28;20873;-69
2023/06/08 08:08:37;;;;;;;13.17;10.77;;;19.60;99.90;;;;;;5029888;28;20228;-69
2023/06/08 08:11:03;;;;;;;17.40;12.67;;;19.70;99.90;;;;;;5029989;28;20181;-69
2023/06/08 08:13:29;;;;;;;12.20;10.43;;;19.70;99.90;;;;;;5029100;28;20779;-69
2023/06/08 08:15:55;;;;;;;14.50;11.07;;;19.80;99.90;;;;;;5029965;28;20186;-69
2023/06/08 08:18:21;;;;;;;15.77;11.70;;;19.80;99.90;;;;;;5028448;28;20511;-69
2023/06/08 08:20:46;;;;;;;14.23;11.20;;;19.80;99.90;;;;;;5029769;28;20413;-69
2023/06/08 08:23:12;;;;;;;15.60;11.63;;;19.80;99.90;;;;;;5028765;28;20502;-69
2023/06/08 08:25:38;;;;;;;12.43;11.17;;;19.80;99.90;;;;;;5029675;28;20844;-69
2023/06/08 08:28:04;;;;;;;17.97;12.37;;;19.90;99.90;;;;;;5038003;28;20280;-69
2023/06/08 08:30:30;;;;;;;16.90;11.87;;;19.90;99.90;;;;;;5046078;28;20191;-69
2023/06/08 08:32:56;;;;;;;14.83;11.47;;;20.00;99.90;;;;;;5028724;28;20193;-69
2023/06/08 08:35:28;;;;;;;11.73;10.53;;;20.20;99.90;;;;;;5027996;28;20845;-69
2023/06/08 08:37:53;;;;;;;17.70;11.30;;;20.30;99.90;;;;;;5029237;28;20275;-69
2023/06/08 08:40:19;;;;;;;12.47;10.60;;;20.40;99.90;;;;;;5029571;28;20421;-69
2023/06/08 08:42:51;;;;;;;14.20;10.40;;;20.50;99.90;;;;;;5028528;28;20183;-69
2023/06/08 08:45:19;;;;;;;12.63;11.20;;;20.50;99.90;;;;;;5029276;28;20681;-70
2023/06/08 08:47:48;;;;;;;14.40;12.10;;;20.60;99.90;;;;;;5029395;28;20433;-70
2023/06/08 08:50:16;;;;;;;14.50;12.00;;;20.70;99.90;;;;;;5029511;28;20996;-70
2023/06/08 08:52:45;;;;;;;12.60;11.10;;;20.80;99.90;;;;;;5028480;28;20417;-70
2023/06/08 08:55:11;;;;;;;15.97;11.63;;;20.80;99.90;;;;;;5028908;28;20829;-70
2023/06/08 08:57:37;;;;;;;12.20;10.83;;;20.90;99.90;;;;;;5028913;28;20465;-70
2023/06/08 09:00:09;;;;;;;12.93;10.30;;;21.00;99.90;;;;;;5029201;28;21123;-70
2023/06/08 09:02:36;;;;;;;12.47;11.20;;;21.10;99.90;;;;;;5028624;28;20209;-70
2023/06/08 09:05:05;;;;;;;17.00;12.30;;;21.20;99.90;;;;;;5028789;28;20583;-70
2023/06/08 09:07:31;;;;;;;13.60;11.53;;;21.30;99.90;;;;;;5029491;28;20433;-70
2023/06/08 09:10:21;;;;;;;13.80;11.67;;;21.40;99.90;;;;;;5027913;28;20442;-70
2023/06/08 09:12:49;;;;;;;16.60;11.10;;;21.50;99.90;;;;;;5027359;28;20211;-70
2023/06/08 09:15:34;;;;;;;17.83;12.20;;;21.60;99.90;;;;;;5028748;28;20413;-70
2023/06/08 09:18:14;;;;;;;16.70;12.40;;;21.60;99.90;;;;;;5028707;28;20456;-70
2023/06/08 09:20:40;;;;;;;13.30;11.77;;;21.70;99.90;;;;;;5028878;28;20423;-70
2023/06/08 09:23:15;;;;;;;17.13;11.60;;;21.80;99.90;;;;;;5027940;28;20410;-70
2023/06/08 09:25:41;;;;;;;13.27;11.97;;;21.90;99.90;;;;;;5028982;28;20170;-70
2023/06/08 09:28:14;;;;;;;13.60;12.20;;;21.90;99.90;;;;;;5037502;28;20498;-71
2023/06/08 09:30:41;;;;;;;16.97;12.03;;;22.00;99.90;;;;;;5043548;28;20417;-70
2023/06/08 09:33:24;;;;;;;13.30;11.90;;;22.10;99.90;;;;;;5027188;28;20413;-70
2023/06/08 09:35:56;;;;;;;13.70;10.90;;;22.20;99.90;;;;;;5027306;28;20527;-71
2023/06/08 09:38:25;;;;;;;15.43;12.87;;;22.30;99.90;;;;;;5028475;28;20495;-70
2023/06/08 09:40:51;;;;;;;12.33;11.10;;;22.40;99.90;;;;;;5028699;28;20429;-70
2023/06/08 09:43:34;;;;;;;11.93;10.73;;;22.50;99.90;;;;;;5027604;28;20436;-71
2023/06/08 09:45:59;;;;;;;11.63;10.50;;;22.60;99.90;;;;;;5028740;28;20460;-70
2023/06/08 09:48:25;;;;;;;12.57;10.63;;;22.80;99.90;;;;;;5028353;28;20452;-71
2023/06/08 09:51:00;;;;;;;14.73;11.50;;;22.90;99.90;;;;;;5028605;28;20255;-70
2023/06/08 09:53:28;;;;;;;12.70;11.40;;;23.00;99.90;;;;;;5027572;28;20193;-70
2023/06/08 09:55:58;;;;;;;17.20;12.57;;;23.10;99.90;;;;;;5028543;28;20502;-70
2023/06/08 09:58:27;;;;;;;12.50;11.20;;;23.20;99.90;;;;;;5028361;28;20791;-70
2023/06/08 10:01:00;;;;;;;13.07;11.77;;;23.20;99.90;;;;;;5028567;28;20413;-71
2023/06/08 10:03:33;;;;;;;12.77;11.37;;;23.20;99.90;;;;;;5027507;28;20452;-71
2023/06/08 10:06:00;;;;;;;16.83;12.00;;;23.30;99.90;;;;;;5028401;28;20465;-71
2023/06/08 10:08:27;;;;;;;13.77;11.77;;;23.40;99.90;;;;;;5028187;28;20443;-70
2023/06/08 10:10:55;;;;;;;11.97;10.87;;;23.40;99.90;;;;;;5028284;28;20549;-71
2023/06/08 10:13:22;;;;;;;15.67;13.97;;;23.60;99.90;;;;;;5027358;28;20520;-70
2023/06/08 10:15:48;;;;;;;15.40;12.00;;;23.60;99.90;;;;;;5027160;28;20416;-71
2023/06/08 10:18:14;;;;;;;14.70;11.30;;;23.70;99.90;;;;;;5028227;28;20464;-70
2023/06/08 10:20:41;;;;;;;13.30;11.40;;;23.70;99.90;;;;;;5028257;28;20417;-70
2023/06/08 10:23:07;;;;;;;12.83;11.53;;;23.70;99.90;;;;;;5027232;28;20428;-71
2023/06/08 10:25:35;;;;;;;14.50;12.73;;;23.80;99.90;;;;;;5028214;28;20474;-70
2023/06/08 10:28:05;;;;;;;12.30;11.13;;;23.90;99.90;;;;;;5036065;28;20455;-70
2023/06/08 10:30:40;;;;;;;12.90;11.60;;;24.00;99.90;;;;;;5043065;28;20428;-70
2023/06/08 10:33:07;;;;;;;16.00;13.27;;;24.00;99.90;;;;;;5027317;28;20936;-70
2023/06/08 10:35:33;;;;;;;14.43;12.10;;;24.10;99.90;;;;;;5026759;28;20448;-70
2023/06/08 10:38:14;;;;;;;12.50;11.40;;;24.10;99.90;;;;;;5027986;28;20988;-71
2023/06/08 10:40:50;;;;;;;11.77;10.77;;;24.20;99.90;;;;;;5028271;28;20262;-70
2023/06/08 10:43:17;;;;;;;13.67;12.03;;;24.30;99.90;;;;;;5027011;28;20464;-71
2023/06/08 10:45:45;;;;;;;13.07;11.77;;;24.30;99.90;;;;;;5029836;28;20425;-70
2023/06/08 10:48:18;;;;;;;11.83;10.67;;;24.40;99.90;;;;;;5031480;28;20449;-71
2023/06/08 10:50:44;;;;;;;13.00;11.80;;;24.40;99.90;;;;;;5031595;28;20456;-70
2023/06/08 10:53:10;;;;;;;12.77;11.63;;;24.50;99.90;;;;;;5030560;28;21169;-70
2023/06/08 10:55:35;;;;;;;13.03;11.63;;;24.50;99.90;;;;;;5031624;28;20429;-71
2023/06/08 10:58:06;;;;;;;12.87;11.67;;;24.60;99.90;;;;;;5029991;28;20622;-70
2023/06/08 11:00:41;;;;;;;12.53;11.53;;;24.70;99.90;;;;;;5031534;28;20232;-71
2023/06/08 11:03:09;;;;;;;11.37;10.37;;;24.70;99.90;;;;;;5030341;28;20423;-70
2023/06/08 11:05:37;;;;;;;14.40;11.60;;;24.80;99.90;;;;;;5031211;28;20440;-71
2023/06/08 11:08:04;;;;;;;13.13;10.20;;;24.80;99.90;;;;;;5031260;28;20942;-71
2023/06/08 11:10:32;;;;;;;14.03;12.57;;;25.00;99.90;;;;;;5031158;28;20414;-71
2023/06/08 11:13:08;;;;;;;12.73;11.27;;;25.00;99.90;;;;;;5030429;28;20417;-70
2023/06/08 11:15:38;;;;;;;12.83;11.57;;;25.00;99.90;;;;;;5030891;28;20444;-71
2023/06/08 11:18:05;;;;;;;12.97;11.20;;;25.10;99.90;;;;;;5030927;28;20465;-71
2023/06/08 11:20:32;;;;;;;13.07;11.87;;;25.10;99.90;;;;;;5030790;28;20504;-71
2023/06/08 11:23:00;;;;;;;12.40;11.30;;;25.20;99.90;;;;;;5030203;28;20482;-70
2023/06/08 11:25:25;;;;;;;11.77;10.67;;;25.20;99.90;;;;;;5030703;28;20414;-71
2023/06/08 11:27:55;;;;;;;11.40;10.23;;;25.10;99.90;;;;;;5037494;28;21133;-71
2023/06/08 11:30:22;;;;;;;11.57;10.53;;;25.10;99.90;;;;;;5048194;28;20268;-71
2023/06/08 11:32:50;;;;;;;13.27;11.90;;;25.20;99.90;;;;;;5030189;28;20511;-71
2023/06/08 11:35:21;;;;;;;11.40;10.40;;;25.10;99.90;;;;;;5028807;28;20417;-71
2023/06/08 11:37:49;;;;;;;13.63;10.97;;;25.20;99.90;;;;;;5030750;28;20456;-71
2023/06/08 11:40:16;;;;;;;12.33;11.33;;;25.20;99.90;;;;;;5030610;28;20414;-71
2023/06/08 11:42:42;;;;;;;11.30;10.30;;;25.20;99.90;;;;;;5029997;28;20422;-70
2023/06/08 11:45:10;;;;;;;12.50;11.30;;;25.20;99.90;;;;;;5030396;28;20421;-71
2023/06/08 11:47:36;;;;;;;12.57;11.40;;;25.20;99.90;;;;;;5030366;28;20869;-71
2023/06/08 11:50:03;;;;;;;11.83;10.83;;;25.30;99.90;;;;;;5030351;28;20490;-71
2023/06/08 11:52:34;;;;;;;12.53;11.47;;;25.40;99.90;;;;;;5029955;28;20474;-71
2023/06/08 11:55:04;;;;;;;13.27;11.47;;;25.40;99.90;;;;;;5030107;28;20418;-71
2023/06/08 11:57:40;;;;;;;11.70;10.50;;;25.50;99.90;;;;;;5029768;28;20457;-71
2023/06/08 12:00:31;;;;;;;11.10;10.30;;;25.50;99.90;;;;;;5030233;28;20412;-71
2023/06/08 12:02:57;;;;;;;11.83;10.83;;;25.50;99.90;;;;;;5029615;28;20491;-71
2023/06/08 12:05:25;;;;;;;10.90;10.00;;;25.50;99.90;;;;;;5029931;28;20436;-71
2023/06/08 12:07:58;;;;;;;12.33;11.33;;;25.50;99.90;;;;;;5030188;28;20527;-71
2023/06/08 12:10:37;;;;;;;11.17;10.27;;;25.60;99.90;;;;;;5029969;28;20836;-71
2023/06/08 12:13:12;;;;;;;11.27;10.17;;;25.70;99.90;;;;;;5029243;28;20425;-71
2023/06/08 12:15:44;;;;;;;10.10;9.30;;;25.80;99.90;;;;;;5029898;28;20456;-71
2023/06/08 12:18:11;;;;;;;11.63;10.53;;;25.90;99.90;;;;;;5028744;28;20487;-71
2023/06/08 12:20:38;;;;;;;10.90;10.00;;;25.90;99.90;;;;;;5029879;28;20879;-71
2023/06/08 12:23:04;;;;;;;11.20;10.20;;;26.00;99.90;;;;;;5028946;28;20492;-71
2023/06/08 12:25:30;;;;;;;13.33;11.00;;;25.90;99.90;;;;;;5029440;28;20417;-71
2023/06/08 12:27:57;;;;;;;12.60;11.40;;;25.90;99.90;;;;;;5037090;28;20448;-71
2023/06/08 12:30:23;;;;;;;11.70;10.60;;;26.00;99.90;;;;;;5046979;28;20424;-71
2023/06/08 12:32:53;;;;;;;12.07;10.90;;;26.00;99.90;;;;;;5028944;28;20413;-71